< < Back
Terminal Aerodrome Forecast


Current Version              Previous Versions:   1  2  3  4  5  6  7  8  9  

Terminal Aerodrome Forecast

869
FTUS42 KFFC 060331 AAB
TAFAHN
TAF AMD
KAHN 060331Z 0604/0624 31008KT P6SM FEW060
     FM061300 32014G24KT P6SM SKC
     FM061500 33015G25KT P6SM FEW060=

Latest METAR

327
SAUS70 KWBC 060500
MTRAHN
METAR KAHN 060451Z AUTO 31004KT 10SM CLR 08/05 A2984 RMK AO2 SLP103
T00830050 401890083


USA.gov is the U.S. government's official web portal to all federal, state and local government web resources and services.